createdAt,value
2022-12-04T00:02:09.122Z,958.77
2022-12-04T00:07:11.135Z,958.73
2022-12-04T00:12:12.751Z,958.67
2022-12-04T00:17:14.512Z,958.77
2022-12-04T00:22:16.407Z,958.71
2022-12-04T00:27:18.451Z,958.71
2022-12-04T00:32:20.409Z,958.81
2022-12-04T00:37:21.762Z,958.8
2022-12-04T00:42:23.777Z,958.7
2022-12-04T00:47:25.586Z,958.69
2022-12-04T00:52:27.475Z,958.69
2022-12-04T00:57:29.620Z,958.83
2022-12-04T01:02:31.314Z,958.9
2022-12-04T01:07:32.641Z,958.86
2022-12-04T01:12:34.613Z,958.72
2022-12-04T01:17:36.149Z,958.89
2022-12-04T01:22:38.184Z,958.8
2022-12-04T01:27:39.517Z,958.89
2022-12-04T01:32:40.964Z,958.82
2022-12-04T01:37:42.969Z,958.82
2022-12-04T01:42:45.084Z,958.82
2022-12-04T01:47:46.606Z,958.75
2022-12-04T01:52:48.195Z,958.89
2022-12-04T01:57:50.172Z,958.93
2022-12-04T02:02:52.354Z,958.83
2022-12-04T02:07:53.965Z,958.77
2022-12-04T02:12:55.656Z,958.48
2022-12-04T02:17:57.459Z,958.35
2022-12-04T02:22:59.326Z,958.41
2022-12-04T02:28:00.899Z,958.55
2022-12-04T02:33:02.102Z,958.42
2022-12-04T02:38:03.704Z,958.37
2022-12-04T02:43:05.436Z,958.2
2022-12-04T02:48:06.830Z,958.17
2022-12-04T02:53:08.259Z,958.11
2022-12-04T02:58:09.530Z,958.11
2022-12-04T03:03:10.953Z,958.05
2022-12-04T03:08:12.652Z,957.96
2022-12-04T03:13:14.654Z,958
2022-12-04T03:18:15.783Z,958.03
2022-12-04T03:23:17.744Z,958.05
2022-12-04T03:28:19.676Z,957.97
2022-12-04T03:33:21.637Z,958
2022-12-04T03:38:23.571Z,958.04
2022-12-04T03:43:25.625Z,958.09
2022-12-04T03:48:27.026Z,958.17
2022-12-04T03:53:28.498Z,958.1
2022-12-04T03:58:30.391Z,958.05
2022-12-04T04:03:31.722Z,957.99
2022-12-04T04:08:33.732Z,957.98
2022-12-04T04:13:35.822Z,957.86
2022-12-04T04:18:37.735Z,957.89
2022-12-04T04:23:39.568Z,957.86
2022-12-04T04:28:40.886Z,957.8
2022-12-04T04:33:42.049Z,957.74
2022-12-04T04:38:43.925Z,957.72
2022-12-04T04:43:45.339Z,957.82
2022-12-04T04:48:47.029Z,957.82
2022-12-04T04:53:48.858Z,957.7
2022-12-04T04:58:50.563Z,957.73
2022-12-04T05:03:52.462Z,957.77
2022-12-04T05:08:54.048Z,957.66
2022-12-04T05:13:55.577Z,957.67
2022-12-04T05:18:57.382Z,957.84
2022-12-04T05:23:59.342Z,957.89
2022-12-04T05:29:01.410Z,957.85
2022-12-04T05:34:03.436Z,957.71
2022-12-04T05:39:05.514Z,957.8
2022-12-04T05:44:07.605Z,957.75
2022-12-04T05:49:09.594Z,957.81
2022-12-04T05:54:11.336Z,957.78
2022-12-04T05:59:13.133Z,957.95
2022-12-04T06:04:15.090Z,957.68
2022-12-04T06:09:17.000Z,957.71
2022-12-04T06:14:18.785Z,957.67
2022-12-04T06:19:20.104Z,957.85
2022-12-04T06:24:21.346Z,957.77
2022-12-04T06:29:23.081Z,957.66
2022-12-04T06:34:24.250Z,957.61
2022-12-04T06:39:26.312Z,957.73
2022-12-04T06:44:27.705Z,957.75
2022-12-04T06:49:29.466Z,957.71
2022-12-04T06:54:31.030Z,957.74
2022-12-04T06:59:39.560Z,957.72
2022-12-04T07:04:40.914Z,957.75
2022-12-04T07:09:42.808Z,957.58
2022-12-04T07:14:44.745Z,957.74
2022-12-04T07:19:46.694Z,957.84
2022-12-04T07:24:48.445Z,957.89
2022-12-04T07:29:49.811Z,958.14
2022-12-04T07:34:51.785Z,957.89
2022-12-04T07:39:53.396Z,957.68
2022-12-04T07:44:55.147Z,957.58
2022-12-04T07:49:57.314Z,957.63
2022-12-04T07:54:58.536Z,957.86
2022-12-04T08:00:00.406Z,957.73
2022-12-04T08:05:02.184Z,957.65
2022-12-04T08:10:03.620Z,957.72
2022-12-04T08:15:05.908Z,957.87
2022-12-04T08:20:07.319Z,957.86
2022-12-04T08:25:08.764Z,957.74
2022-12-04T08:30:10.520Z,957.72
2022-12-04T08:35:11.926Z,957.54
2022-12-04T08:40:13.826Z,957.75
2022-12-04T08:45:15.916Z,957.77
2022-12-04T08:50:17.825Z,957.74
2022-12-04T08:55:19.689Z,957.78
2022-12-04T09:00:21.079Z,957.91
2022-12-04T09:05:22.514Z,958.11
2022-12-04T09:10:24.059Z,958.05
2022-12-04T09:15:26.302Z,957.78
2022-12-04T09:20:27.829Z,957.56
2022-12-04T09:25:29.162Z,957.58
2022-12-04T09:30:31.016Z,957.95
2022-12-04T09:35:32.941Z,957.84
2022-12-04T09:40:37.810Z,957.6
2022-12-04T09:45:35.838Z,957.45
2022-12-04T09:50:37.095Z,957.44
2022-12-04T09:55:39.196Z,957.32
2022-12-04T10:00:41.275Z,957.25
2022-12-04T10:05:43.043Z,957.32
2022-12-04T10:10:45.182Z,957.38
2022-12-04T10:20:47.891Z,957.4
2022-12-04T10:40:54.563Z,956.97
2022-12-04T10:50:57.227Z,956.85
2022-12-04T10:55:58.961Z,956.5
2022-12-04T11:21:06.535Z,956.62
2022-12-04T11:26:08.188Z,956.48
2022-12-04T11:36:11.803Z,956.46
2022-12-04T11:41:13.391Z,956.79
2022-12-04T11:51:16.566Z,956.64
2022-12-04T11:56:18.719Z,956.71
2022-12-04T12:01:26.227Z,956.57
2022-12-04T12:06:21.528Z,956.49
2022-12-04T12:11:23.246Z,956.43
2022-12-04T12:16:25.128Z,956.28
2022-12-04T12:21:27.117Z,956.11
2022-12-04T12:26:29.062Z,956.08
2022-12-04T12:31:31.239Z,956.07
2022-12-04T12:36:33.013Z,956.11
2022-12-04T12:41:34.909Z,956.1
2022-12-04T12:46:36.654Z,956.05
2022-12-04T12:51:37.880Z,956.18
2022-12-04T12:56:42.268Z,956.19
2022-12-04T13:01:41.168Z,956.19
2022-12-04T13:06:43.009Z,956.18
2022-12-04T13:11:45.013Z,956.15
2022-12-04T13:16:46.364Z,956.05
2022-12-04T13:21:47.958Z,955.98
2022-12-04T13:26:49.973Z,955.96
2022-12-04T13:31:51.949Z,955.92
2022-12-04T13:36:54.060Z,955.73
2022-12-04T13:41:55.862Z,955.79
2022-12-04T13:46:57.349Z,955.94
2022-12-04T13:51:59.098Z,955.93
2022-12-04T13:57:00.818Z,955.96
2022-12-04T14:02:07.899Z,956.12
2022-12-04T14:07:04.685Z,956.05
2022-12-04T14:12:06.451Z,956.07
2022-12-04T14:17:08.279Z,956.11
2022-12-04T14:22:09.422Z,956.04
2022-12-04T14:27:12.057Z,956.02
2022-12-04T14:32:12.405Z,955.86
2022-12-04T14:37:14.551Z,955.95
2022-12-04T14:42:16.062Z,955.83
2022-12-04T14:47:18.123Z,955.97
2022-12-04T14:52:20.144Z,955.96
2022-12-04T14:57:21.618Z,956.03
2022-12-04T15:02:23.541Z,955.85
2022-12-04T15:07:24.815Z,955.8
2022-12-04T15:12:26.524Z,955.84
2022-12-04T15:17:28.813Z,956.02
2022-12-04T15:22:30.448Z,956.15
2022-12-04T15:27:32.850Z,956.25
2022-12-04T15:32:33.081Z,956.36
2022-12-04T15:37:34.654Z,956.41
2022-12-04T15:42:36.694Z,956.5
2022-12-04T15:47:38.865Z,956.55
2022-12-04T15:52:40.564Z,956.64
2022-12-04T15:57:41.954Z,956.61
2022-12-04T16:02:43.664Z,956.63
2022-12-04T16:07:45.608Z,956.54
2022-12-04T16:12:47.309Z,956.65
2022-12-04T16:17:49.540Z,956.63
2022-12-04T16:22:51.185Z,956.76
2022-12-04T16:27:53.039Z,956.8
2022-12-04T16:32:55.177Z,956.8
2022-12-04T16:37:56.690Z,956.77
2022-12-04T16:42:58.301Z,956.8
2022-12-04T16:47:59.997Z,956.8
2022-12-04T16:53:02.022Z,956.84
2022-12-04T16:58:03.624Z,956.86
2022-12-04T17:03:05.368Z,956.91
2022-12-04T17:08:07.665Z,956.9
2022-12-04T17:13:09.252Z,956.96
2022-12-04T17:18:14.016Z,956.96
2022-12-04T17:23:12.502Z,956.88
2022-12-04T17:28:13.977Z,956.83
2022-12-04T17:33:15.531Z,956.97
2022-12-04T17:38:16.749Z,956.94
2022-12-04T17:43:21.989Z,956.96
2022-12-04T17:48:20.379Z,956.88
2022-12-04T17:53:21.594Z,956.95
2022-12-04T17:58:23.619Z,957.02
2022-12-04T18:03:25.675Z,957.1
2022-12-04T18:08:27.454Z,957.14
2022-12-04T18:13:28.872Z,957.15
2022-12-04T18:18:30.651Z,957.22
2022-12-04T18:23:32.834Z,957.27
2022-12-04T18:28:34.147Z,957.22
2022-12-04T18:33:36.338Z,957.2
2022-12-04T18:38:37.758Z,957.18
2022-12-04T18:43:39.103Z,957.22
2022-12-04T18:48:40.380Z,957.23
2022-12-04T18:53:41.936Z,957.26
2022-12-04T18:58:43.699Z,957.26
2022-12-04T19:03:45.535Z,957.26
2022-12-04T19:08:47.629Z,957.22
2022-12-04T19:13:48.923Z,957.24
2022-12-04T19:18:50.724Z,957.25
2022-12-04T19:23:52.747Z,957.34
2022-12-04T19:28:54.722Z,957.45
2022-12-04T19:33:56.364Z,957.47
2022-12-04T19:38:57.979Z,957.53
2022-12-04T19:43:59.330Z,957.52
2022-12-04T19:49:01.262Z,957.71
2022-12-04T19:54:02.915Z,957.82
2022-12-04T19:59:04.781Z,957.92
2022-12-04T20:04:06.229Z,958.04
2022-12-04T20:09:07.508Z,958.05
2022-12-04T20:14:09.225Z,958.08
2022-12-04T20:19:10.594Z,958.11
2022-12-04T20:24:12.449Z,958.2
2022-12-04T20:29:13.693Z,958.32
2022-12-04T20:34:15.216Z,958.37
2022-12-04T20:39:17.401Z,958.4
2022-12-04T20:44:18.826Z,958.43
2022-12-04T20:49:22.253Z,958.46
2022-12-04T20:54:22.000Z,958.5
2022-12-04T20:59:23.829Z,958.53
2022-12-04T21:04:25.864Z,958.48
2022-12-04T21:09:27.953Z,958.54
2022-12-04T21:14:29.202Z,958.62
2022-12-04T21:19:31.274Z,958.68
2022-12-04T21:24:32.930Z,958.63
2022-12-04T21:29:34.225Z,958.56
2022-12-04T21:34:36.264Z,958.62
2022-12-04T21:39:37.896Z,958.6
2022-12-04T21:44:39.481Z,958.59
2022-12-04T21:49:41.519Z,958.69
2022-12-04T21:54:43.592Z,958.66
2022-12-04T21:59:45.010Z,958.62
2022-12-04T22:04:46.677Z,958.67
2022-12-04T22:09:48.207Z,958.65
2022-12-04T22:14:50.307Z,958.79
2022-12-04T22:19:51.702Z,958.93
2022-12-04T22:24:52.887Z,959
2022-12-04T22:29:54.645Z,959.01
2022-12-04T22:34:56.389Z,959.07
2022-12-04T22:39:58.522Z,959
2022-12-04T22:44:59.850Z,959.16
2022-12-04T22:50:01.135Z,959.2
2022-12-04T22:55:03.115Z,959.16
2022-12-04T23:15:09.730Z,959.3
2022-12-04T23:20:11.547Z,959.36
2022-12-04T23:25:13.154Z,959.37
2022-12-04T23:30:15.206Z,959.33
2022-12-04T23:35:16.551Z,959.27
2022-12-04T23:40:18.324Z,959.32
2022-12-04T23:45:26.185Z,959.52
2022-12-04T23:50:28.246Z,959.53
2022-12-04T23:55:33.955Z,959.81
